Main page
METAR-TAF:

METAR-TAF

Airports :

Jinnah International Airport

Karachi, Pakistan

latitude: 24-54N, longitude: 067-08E, elevation: 21 m

Current weather observation

The report was made 46 minutes ago, at 07:24 UTC
Wind 9 kt from the West
Temperature 39°C
Humidity 18%
Pressure 1007 hPa
Visibility: 6000 m

METAR: OPKC 220724Z 27009KT 6000 NSC 39/10 Q1007 NOSIG

Time: 13:10 (08:10 UTC)

Forecast

The report was made 4 hours and 10 minutes ago, at 04:00 UTC
Forecast valid from 22 at 06 UTC to 23 at 12 UTC
Wind 8 kt from the West with gusts up to 18 kt
Visibility: 6000 m
From 22 at 2100 UTC
Wind 8 kt from the West
Visibility: 5000 m
Few clouds at a height of 3000 ft
Scattered clouds at a height of 10000 ft
haze
From 23 at 0600 UTC
Wind 5 kt from the South/Southwest with gusts up to 15 kt
Visibility: 6000 m
Scattered clouds at a height of 2000 ft

TAF: OPKC 220400Z 2206/2312 26008G18KT 6000 NSC FM222100 28008KT 5000 HZ FEW030 SCT100 FM230600 21005G15KT 6000 SCT020

Weather observations and forecasts of more than 4000 airports (METAR and TAF reports).

The available stations are represented by yellow and red dots on the map.

Hover mouse over dot to see the name of the station.

Then click to see weather observations and forecasts.

To change the map : click on the green buttons with a black cross to zoom in, on the green button with a dash to zoom out, or on the green arrows for adjacent maps.


METAR-TAF: